Time;durP1;ratioP1;P1;durP2;ratioP2;P2;SDS_P1;SDS_P2;PMS_P1;PMS_P2;Temp;Humidity;BMP_temperature;BMP_pressure;BME280_temperature;BME280_humidity;BME280_pressure;Samples;Min_cycle;Max_cycle;Signal;HPM_P1;HPM_P2
2021/03/05 00:02:01;;;;;;;3.62;3.05;;;;;;;9.85;49.27;99958.81;2508599;78;25630;-83
2021/03/05 00:05:23;;;;;;;5.03;3.75;;;;;;;9.82;49.18;99965.69;2478107;78;25508;-80
2021/03/05 00:09:52;;;;;;;3.98;3.58;;;;;;;9.80;49.11;99971.30;2509649;78;25547;-83
2021/03/05 00:13:24;;;;;;;5.37;4.00;;;;;;;9.78;49.07;99975.16;2509928;78;31238;-79
2021/03/05 00:16:55;;;;;;;6.05;3.22;;;;;;;9.75;48.99;99974.22;2509768;78;25311;-78
2021/03/05 00:20:21;;;;;;;6.53;3.30;;;;;;;9.73;48.94;99974.64;2510592;78;25553;-83
2021/03/05 00:23:43;;;;;;;5.75;3.52;;;;;;;9.71;48.89;99975.89;2477895;78;25694;-84
2021/03/05 00:27:05;;;;;;;4.85;3.65;;;;;;;9.69;48.85;99975.88;2509375;77;25729;-80
2021/03/05 00:30:29;;;;;;;4.35;3.00;;;;;;;9.68;48.84;99978.42;2509733;78;25585;-82
2021/03/05 00:33:50;;;;;;;4.45;3.00;;;;;;;9.66;48.80;99977.11;2451854;77;25706;-83
2021/03/05 00:37:20;;;;;;;5.17;3.17;;;;;;;9.65;48.75;99975.76;2477846;78;25604;-83
2021/03/05 00:40:41;;;;;;;4.92;3.08;;;;;;;9.63;48.73;99979.64;2217947;86;25830;-82
2021/03/05 00:44:06;;;;;;;4.60;2.92;;;;;;;9.63;48.70;99977.47;2249694;88;26119;-82
2021/03/05 00:47:28;;;;;;;4.42;3.08;;;;;;;9.62;48.66;99977.90;2249642;88;25682;-83
2021/03/05 00:50:54;;;;;;;5.37;3.00;;;;;;;9.60;48.57;99981.30;2249792;86;25468;-83
2021/03/05 00:54:16;;;;;;;3.72;2.17;;;;;;;9.59;48.52;99976.53;2249787;86;25737;-83
2021/03/05 00:57:44;;;;;;;3.60;2.80;;;;;;;9.56;48.50;99975.16;2323681;80;25694;-83
2021/03/05 01:01:06;;;;;;;4.25;3.05;;;;;;;9.55;48.48;99971.20;2470033;80;25701;-81
2021/03/05 01:04:34;;;;;;;3.83;2.52;;;;;;;9.53;48.42;99969.89;2470084;80;25574;-83
2021/03/05 01:07:55;;;;;;;4.40;2.92;;;;;;;9.52;48.40;99966.84;2469383;80;25583;-81
2021/03/05 01:11:19;;;;;;;4.05;3.08;;;;;;;9.50;48.37;99967.22;2468668;80;25591;-81
2021/03/05 01:14:54;;;;;;;4.35;3.30;;;;;;;9.49;48.35;99964.17;2469363;79;25662;-82
2021/03/05 01:18:19;;;;;;;4.55;3.00;;;;;;;9.48;48.31;99971.50;2468888;80;25594;-76
2021/03/05 01:21:44;;;;;;;5.62;2.95;;;;;;;9.45;48.25;99968.86;2469408;80;26192;-84
2021/03/05 01:25:13;;;;;;;4.05;2.58;;;;;;;9.44;48.23;99970.55;2442647;80;25749;-83
2021/03/05 01:28:45;;;;;;;5.22;3.37;;;;;;;9.43;48.17;99967.94;2442627;80;25559;-84
2021/03/05 01:32:08;;;;;;;4.17;2.90;;;;;;;9.41;48.14;99969.61;2468910;80;25679;-80
2021/03/05 01:35:30;;;;;;;4.35;2.52;;;;;;;9.39;48.11;99960.92;2469135;79;25704;-82
2021/03/05 01:38:56;;;;;;;4.55;3.22;;;;;;;9.37;48.11;99961.30;2469315;79;25700;-75
2021/03/05 01:42:22;;;;;;;3.65;2.30;;;;;;;9.35;48.09;99963.00;2261382;87;25682;-82
2021/03/05 01:45:49;;;;;;;4.92;2.58;;;;;;;9.34;48.06;99966.00;2223227;86;25765;-82
2021/03/05 01:49:22;;;;;;;6.03;2.67;;;;;;;9.34;48.03;99969.03;2204120;89;25422;-77
2021/03/05 01:52:53;;;;;;;5.12;2.55;;;;;;;9.32;48.01;99961.63;2115281;92;25786;-80
2021/03/05 01:56:37;;;;;;;4.10;2.52;;;;;;;9.30;47.98;99967.21;2157097;91;25303;-85
2021/03/05 01:59:58;;;;;;;4.95;2.95;;;;;;;9.28;47.97;99968.49;2248867;84;25658;-85
2021/03/05 02:03:20;;;;;;;3.67;2.08;;;;;;;9.27;47.92;99973.22;2342148;83;25741;-82
2021/03/05 02:06:41;;;;;;;4.28;3.12;;;;;;;9.26;47.90;99980.58;2342181;84;25555;-84
2021/03/05 02:10:07;;;;;;;4.35;2.22;;;;;;;9.25;47.88;99979.22;2391937;80;25259;-82
2021/03/05 02:13:31;;;;;;;6.40;3.17;;;;;;;9.24;47.85;99982.25;2449947;80;25331;-85
2021/03/05 02:17:27;;;;;;;5.17;2.42;;;;;;;9.22;47.85;99982.23;2472720;80;25732;-84
2021/03/05 02:21:09;;;;;;;4.33;2.47;;;;;;;9.22;47.82;99993.06;2287715;85;25701;-82
2021/03/05 02:24:59;;;;;;;5.08;2.83;;;;;;;9.20;47.80;99990.41;2309301;85;25823;-83
2021/03/05 02:28:40;;;;;;;;;;;;;;;9.19;47.77;99989.09;2313104;85;25609;-83
2021/03/05 02:32:31;;;;;;;3.40;2.50;;;;;;;9.17;47.75;99995.53;2310892;85;25723;-72
2021/03/05 02:58:41;;;;;;;4.73;2.53;;;;;;;9.06;47.65;99999.62;2471404;78;25676;-73
2021/03/05 03:02:05;;;;;;;3.62;2.17;;;;;;;8.98;47.62;100006.37;2419011;81;25608;-80
2021/03/05 03:05:47;;;;;;;4.30;1.73;;;;;;;9.03;47.61;100002.57;2538399;77;25668;-84
2021/03/05 03:09:47;;;;;;;5.70;2.52;;;;;;;8.97;47.58;100004.59;2504374;78;25388;-83
2021/03/05 03:17:52;;;;;;;3.58;1.90;;;;;;;8.95;47.54;100021.47;2463018;80;25865;-82
2021/03/05 03:21:15;;;;;;;2.80;1.70;;;;;;;8.92;47.52;100017.49;2463072;80;25726;-78
2021/03/05 03:24:37;;;;;;;4.25;2.12;;;;;;;8.92;47.50;100022.69;2338880;84;25744;-83
2021/03/05 03:28:10;;;;;;;3.50;1.80;;;;;;;8.95;47.48;100020.17;2549002;76;25542;-83
2021/03/05 03:31:32;;;;;;;3.25;2.12;;;;;;;8.90;47.46;100023.48;2509889;78;25641;-80
2021/03/05 03:34:58;;;;;;;2.83;1.72;;;;;;;8.89;47.44;100028.23;2478685;78;25586;-83
2021/03/05 03:38:25;;;;;;;4.40;2.12;;;;;;;8.86;47.44;100025.13;2477891;78;25596;-82
2021/03/05 03:41:49;;;;;;;3.40;2.08;;;;;;;8.86;47.41;100029.03;2483249;78;25588;-82
2021/03/05 03:45:18;;;;;;;4.70;2.02;;;;;;;8.86;47.41;100028.16;2434866;80;25723;-76
2021/03/05 03:48:48;;;;;;;2.90;1.90;;;;;;;8.84;47.39;100035.94;2464937;80;25773;-81
2021/03/05 03:52:19;;;;;;;4.95;2.83;;;;;;;8.83;47.36;100039.35;2434430;80;25523;-82
2021/03/05 03:55:42;;;;;;;4.20;2.12;;;;;;;8.81;47.35;100046.25;2434499;78;25735;-82
2021/03/05 03:59:14;;;;;;;3.12;2.52;;;;;;;8.80;47.33;100056.17;2435976;80;25674;-84
2021/03/05 04:02:45;;;;;;;4.10;2.25;;;;;;;8.78;47.33;100059.17;2464975;80;25590;-79
2021/03/05 04:06:29;;;;;;;3.70;2.33;;;;;;;8.81;47.29;100065.75;2554414;76;27195;-83
2021/03/05 04:10:20;;;;;;;4.90;2.45;;;;;;;8.75;47.29;100070.78;2459897;78;25715;-80
2021/03/05 04:13:53;;;;;;;4.28;2.10;;;;;;;8.72;47.28;100073.30;2477352;79;25625;-79
2021/03/05 04:17:13;;;;;;;3.12;2.10;;;;;;;8.71;47.26;100071.55;2499489;79;25331;-82
2021/03/05 04:20:39;;;;;;;3.87;1.98;;;;;;;8.69;47.27;100068.89;2478658;79;25753;-81
2021/03/05 04:24:00;;;;;;;3.17;2.12;;;;;;;8.68;47.25;100081.86;2500803;79;25685;-82
2021/03/05 04:27:22;;;;;;;3.60;1.77;;;;;;;8.66;47.24;100078.33;2500974;78;25702;-80
2021/03/05 04:30:44;;;;;;;5.33;2.62;;;;;;;8.63;47.22;100081.72;2500956;79;25697;-83
2021/03/05 04:34:08;;;;;;;4.28;2.08;;;;;;;8.62;47.22;100082.99;2500991;79;25517;-83
2021/03/05 04:37:30;;;;;;;4.03;2.55;;;;;;;8.59;47.24;100082.48;2307338;84;25574;-77
2021/03/05 04:40:51;;;;;;;4.62;2.50;;;;;;;8.58;47.24;100081.16;2328826;84;25237;-76
2021/03/05 04:44:15;;;;;;;8.38;3.45;;;;;;;8.57;47.22;100092.37;2292818;86;25422;-76
2021/03/05 04:47:36;;;;;;;5.22;2.90;;;;;;;8.56;47.19;100094.52;2292560;86;25719;-81
2021/03/05 04:50:58;;;;;;;7.05;2.83;;;;;;;8.53;47.18;100095.30;2292729;86;25621;-85
2021/03/05 04:54:26;;;;;;;5.65;3.17;;;;;;;8.51;47.16;100097.00;2335343;80;25491;-82
2021/03/05 04:57:47;;;;;;;6.80;3.37;;;;;;;8.50;47.14;100096.12;2456917;80;25672;-82
2021/03/05 05:01:11;;;;;;;6.87;3.05;;;;;;;8.49;47.16;100102.56;2435249;80;25341;-83
2021/03/05 05:04:35;;;;;;;4.37;2.75;;;;;;;8.47;47.15;100106.42;2456594;80;26173;-79
2021/03/05 05:07:57;;;;;;;3.90;2.90;;;;;;;8.44;47.15;100102.87;2434508;80;25710;-83
2021/03/05 05:11:24;;;;;;;5.75;2.98;;;;;;;8.45;47.13;100112.41;2434858;80;25492;-85
2021/03/05 05:14:49;;;;;;;6.28;2.35;;;;;;;8.43;47.13;100114.95;2456202;80;25493;-83
2021/03/05 05:18:10;;;;;;;5.37;2.75;;;;;;;8.42;47.09;100117.09;2434106;80;25625;-83
2021/03/05 05:21:37;;;;;;;7.62;2.95;;;;;;;8.41;47.10;100123.56;2456201;80;25611;-79
2021/03/05 05:25:02;;;;;;;4.83;2.65;;;;;;;8.39;47.09;100120.91;2455728;80;25814;-84
2021/03/05 05:28:24;;;;;;;4.87;2.58;;;;;;;8.38;47.08;100129.97;2455744;80;25748;-83
2021/03/05 05:31:46;;;;;;;4.40;2.77;;;;;;;8.38;47.06;100129.97;2456053;80;25555;-82
2021/03/05 05:35:09;;;;;;;8.13;3.75;;;;;;;8.38;47.04;100136.04;2455754;80;26197;-82
2021/03/05 05:38:30;;;;;;;4.80;2.62;;;;;;;8.38;47.03;100139.06;2455823;80;25284;-82
2021/03/05 05:41:55;;;;;;;5.72;2.98;;;;;;;8.37;47.02;100142.05;2455281;80;25564;-83
2021/03/05 05:45:16;;;;;;;4.12;2.25;;;;;;;8.39;47.00;100146.00;2455508;80;26525;-84
2021/03/05 05:48:45;;;;;;;4.12;2.77;;;;;;;8.39;46.94;100144.70;2455964;80;25662;-78
2021/03/05 05:52:20;;;;;;;6.33;2.65;;;;;;;8.39;46.93;100157.27;2434225;80;25657;-81
2021/03/05 05:55:42;;;;;;;4.50;2.80;;;;;;;8.41;46.88;100158.63;2455758;80;25597;-76
2021/03/05 05:59:03;;;;;;;5.83;3.47;;;;;;;8.43;46.84;100163.44;2455985;80;25622;-83
2021/03/05 06:02:32;;;;;;;4.67;2.90;;;;;;;8.46;46.80;100171.31;2434270;80;25806;-83
2021/03/05 06:05:57;;;;;;;5.78;3.22;;;;;;;8.46;46.76;100179.98;2453066;80;25761;-82
2021/03/05 06:09:18;;;;;;;6.47;3.65;;;;;;;8.48;46.71;100183.95;2455561;80;25606;-86
2021/03/05 06:12:40;;;;;;;7.55;3.50;;;;;;;8.49;46.69;100193.06;2455811;80;25654;-79
2021/03/05 06:16:18;;;;;;;7.37;3.25;;;;;;;8.53;46.65;100200.95;2455392;80;25590;-85
2021/03/05 06:19:40;;;;;;;7.08;3.50;;;;;;;8.54;46.60;100206.60;2455980;80;25625;-81
2021/03/05 06:23:14;;;;;;;6.12;2.87;;;;;;;8.57;46.56;100210.16;2456132;80;25658;-83
2021/03/05 06:26:52;;;;;;;6.97;3.85;;;;;;;8.61;46.50;100210.74;2455906;80;25587;-85
2021/03/05 06:30:18;;;;;;;5.70;3.27;;;;;;;8.68;46.44;100216.58;2455979;80;25735;-85
2021/03/05 06:33:46;;;;;;;7.75;3.47;;;;;;;8.74;46.33;100228.84;2429851;80;25568;-86
2021/03/05 06:37:07;;;;;;;8.60;3.95;;;;;;;8.81;46.29;100238.99;2453840;80;25652;-82
2021/03/05 06:40:30;;;;;;;6.30;4.15;;;;;;;8.87;46.18;100242.64;2455626;80;25693;-85
2021/03/05 06:44:03;;;;;;;4.47;3.10;;;;;;;9.03;46.07;100258.69;2455622;80;25635;-82
2021/03/05 06:47:29;;;;;;;10.63;3.80;;;;;;;9.20;45.91;100262.20;2455622;80;25672;-85
2021/03/05 06:50:53;;;;;;;7.35;4.08;;;;;;;9.37;45.76;100261.78;2455634;80;25609;-82
2021/03/05 06:54:18;;;;;;;11.88;4.92;;;;;;;9.57;45.59;100266.20;2431001;80;25732;-80
2021/03/05 06:57:44;;;;;;;9.18;3.80;;;;;;;9.78;45.42;100271.06;2361292;83;25761;-82
2021/03/05 07:01:09;;;;;;;7.17;4.10;;;;;;;9.94;45.16;100266.27;2473300;80;25696;-85
2021/03/05 07:04:37;;;;;;;6.40;3.00;;;;;;;10.05;45.02;100270.44;2234859;87;25798;-82
2021/03/05 07:08:06;;;;;;;6.17;3.25;;;;;;;10.19;44.87;100273.36;2277410;85;26188;-86
2021/03/05 07:16:03;;;;;;;9.00;3.37;;;;;;;10.57;44.51;100278.19;2313436;84;25677;-84
2021/03/05 07:19:45;;;;;;;7.17;3.80;;;;;;;10.78;44.18;100291.23;2312634;85;25611;-83
2021/03/05 07:23:19;;;;;;;4.47;3.47;;;;;;;10.91;43.93;100290.64;2354599;82;25733;-84
2021/03/05 07:27:01;;;;;;;4.62;2.87;;;;;;;10.94;43.74;100294.63;2360858;83;25576;-80
2021/03/05 07:30:25;;;;;;;6.03;3.08;;;;;;;11.00;43.66;100295.15;2361036;83;25943;-82
2021/03/05 07:33:59;;;;;;;5.00;3.85;;;;;;;11.19;43.47;100295.11;2370753;82;25690;-85
2021/03/05 07:37:34;;;;;;;5.67;3.62;;;;;;;11.19;43.37;100299.90;2390493;82;25592;-79
2021/03/05 07:41:03;;;;;;;7.25;3.10;;;;;;;11.17;43.24;100306.84;2390295;82;25588;-78
2021/03/05 07:44:30;;;;;;;5.25;3.00;;;;;;;11.16;43.21;100311.57;2389928;82;25367;-77
2021/03/05 07:47:56;;;;;;;3.67;3.00;;;;;;;11.18;43.19;100309.89;2389728;82;25573;-77
2021/03/05 07:51:21;;;;;;;5.25;3.05;;;;;;;11.31;43.12;100311.02;2390524;82;25542;-79
2021/03/05 07:54:44;;;;;;;4.55;2.72;;;;;;;11.57;43.08;100314.09;2400237;82;25511;-81
2021/03/05 07:58:06;;;;;;;4.80;3.33;;;;;;;11.92;42.70;100316.52;2403627;82;25365;-80
2021/03/05 08:01:55;;;;;;;5.97;3.40;;;;;;;11.99;42.48;100323.16;2403680;82;25694;-73
2021/03/05 08:05:56;;;;;;;;;;;;;;;;;;;;;
2021/03/05 08:09:31;;;;;;;7.50;3.63;;;;;;;12.34;42.29;100318.05;2559736;77;29867;-73
2021/03/05 08:12:59;;;;;;;4.25;3.20;;;;;;;13.98;42.07;100315.70;2524988;78;25855;-78
2021/03/05 08:16:36;;;;;;;5.22;2.98;;;;;;;15.20;40.16;100323.92;2520055;76;25676;-77
2021/03/05 08:20:15;;;;;;;7.75;3.37;;;;;;;15.06;39.63;100330.44;2525138;78;25676;-81
2021/03/05 08:24:22;;;;;;;4.75;3.25;;;;;;;15.49;39.37;100327.53;2521960;78;25286;-78
2021/03/05 08:28:46;;;;;;;6.03;3.30;;;;;;;17.18;38.60;100331.42;2524979;78;25636;-83
2021/03/05 08:32:33;;;;;;;5.80;4.12;;;;;;;19.18;36.36;100342.14;2435234;80;25691;-71
2021/03/05 08:35:56;;;;;;;4.10;2.80;;;;;;;18.58;36.31;100330.88;2435570;81;25674;-73
2021/03/05 08:39:27;;;;;;;4.33;3.62;;;;;;;18.10;34.96;100342.75;2436042;81;25276;-81
2021/03/05 08:42:50;;;;;;;8.78;3.90;;;;;;;18.51;33.80;100326.55;2435581;81;25672;-74
2021/03/05 08:46:13;;;;;;;4.47;3.35;;;;;;;17.94;33.40;100339.34;2435652;81;25782;-75
2021/03/05 08:49:36;;;;;;;9.00;4.20;;;;;;;17.70;32.84;100344.31;2434611;80;25595;-73
2021/03/05 08:53:05;;;;;;;5.03;3.37;;;;;;;19.59;31.86;100346.88;2435521;81;25665;-79
2021/03/05 08:56:29;;;;;;;4.03;3.30;;;;;;;19.61;31.19;100352.58;2435915;81;25687;-70
2021/03/05 08:59:57;;;;;;;11.73;3.87;;;;;;;19.55;30.68;100353.56;2435645;81;25791;-83
2021/03/05 09:03:28;;;;;;;4.03;3.20;;;;;;;20.03;30.50;100364.35;2435211;81;25592;-82
2021/03/05 09:06:55;;;;;;;4.15;3.25;;;;;;;22.25;31.00;100369.74;2504156;77;25634;-72
2021/03/05 09:10:20;;;;;;;6.03;3.30;;;;;;;23.28;31.29;100380.72;2523934;78;25720;-78
2021/03/05 09:13:51;;;;;;;6.15;2.80;;;;;;;24.21;32.02;100374.34;2496660;78;25579;-75
2021/03/05 09:17:18;;;;;;;7.47;3.83;;;;;;;25.36;31.17;100385.51;2486862;78;25355;-77
2021/03/05 09:20:50;;;;;;;7.83;4.17;;;;;;;24.97;30.99;100375.33;2519612;78;25655;-75
2021/03/05 09:24:17;;;;;;;5.95;3.22;;;;;;;25.62;28.61;100384.06;2514226;78;25378;-87
2021/03/05 09:27:43;;;;;;;5.30;2.40;;;;;;;26.87;26.33;100385.23;2508626;78;25344;-86
2021/03/05 09:31:06;;;;;;;3.75;2.60;;;;;;;26.96;25.20;100387.47;2478748;79;25212;-85
2021/03/05 09:34:35;;;;;;;3.50;2.52;;;;;;;25.86;24.41;100398.28;2478606;79;25640;-71
2021/03/05 09:37:58;;;;;;;4.00;3.58;;;;;;;24.68;23.99;100393.23;2512634;78;25626;-75
2021/03/05 09:41:28;;;;;;;5.97;3.05;;;;;;;25.78;23.75;100399.00;2523707;78;25638;-77
2021/03/05 09:44:55;;;;;;;6.35;3.80;;;;;;;27.10;23.00;100398.93;2523429;78;25577;-79
2021/03/05 09:48:34;;;;;;;4.12;2.80;;;;;;;28.18;22.07;100402.84;2501959;78;25336;-81
2021/03/05 09:52:06;;;;;;;3.52;3.05;;;;;;;29.02;21.29;100407.14;2478334;79;25208;-78
2021/03/05 09:55:55;;;;;;;3.75;2.72;;;;;;;29.82;20.53;100415.81;2277832;85;25481;-76
2021/03/05 09:59:48;;;;;;;6.08;2.60;;;;;;;30.84;19.75;100420.28;2501065;77;25063;-71
2021/03/05 10:03:12;;;;;;;9.70;2.02;;;;;;;31.53;19.31;100424.16;2463342;80;25594;-75
2021/03/05 10:06:39;;;;;;;2.83;2.40;;;;;;;31.57;18.84;100424.34;2462987;79;25706;-74
2021/03/05 10:10:15;;;;;;;1.72;1.37;;;;;;;32.11;18.49;100429.87;2463239;80;25677;-87
2021/03/05 10:13:54;;;;;;;3.27;2.12;;;;;;;32.57;17.84;100441.67;2458990;80;25689;-82
2021/03/05 10:17:21;;;;;;;1.52;1.35;;;;;;;31.60;18.11;100440.32;2368601;83;25742;-85
2021/03/05 10:20:52;;;;;;;2.98;1.50;;;;;;;31.46;18.72;100430.41;2373994;83;25691;-77
2021/03/05 10:24:17;;;;;;;1.80;1.50;;;;;;;32.10;18.83;100437.59;2367447;83;25533;-72
2021/03/05 10:27:46;;;;;;;2.77;1.30;;;;;;;31.72;19.13;100451.65;2395622;82;25211;-86
2021/03/05 10:31:42;;;;;;;2.85;1.52;;;;;;;30.79;19.52;100447.48;2408199;82;25627;-74
2021/03/05 10:35:12;;;;;;;2.80;1.55;;;;;;;30.03;20.27;100449.54;2408998;81;25561;-71
2021/03/05 10:38:39;;;;;;;2.77;1.65;;;;;;;29.57;20.63;100449.86;2409307;81;25447;-74
2021/03/05 10:42:07;;;;;;;4.10;1.52;;;;;;;28.61;21.07;100453.91;2409059;81;25556;-72
2021/03/05 10:45:30;;;;;;;1.90;1.12;;;;;;;28.75;21.77;100465.76;2409398;81;25635;-72
2021/03/05 10:48:59;;;;;;;2.20;1.00;;;;;;;29.73;21.53;100466.89;2380491;81;25664;-73
2021/03/05 10:52:26;;;;;;;1.27;1.10;;;;;;;30.60;21.40;100478.60;2357367;83;25703;-76
2021/03/05 10:55:48;;;;;;;2.08;1.42;;;;;;;30.15;21.59;100473.54;2356811;84;25402;-71
2021/03/05 10:59:20;;;;;;;2.05;1.20;;;;;;;30.77;21.90;100479.86;2361165;83;25634;-75
2021/03/05 11:02:48;;;;;;;1.27;1.10;;;;;;;31.62;21.59;100470.23;2353630;84;25415;-77
2021/03/05 11:06:12;;;;;;;1.40;0.90;;;;;;;31.97;21.17;100480.17;2343320;84;25359;-83
2021/03/05 11:09:34;;;;;;;2.58;0.95;;;;;;;31.56;21.17;100473.78;2353066;84;25635;-72
2021/03/05 11:12:56;;;;;;;1.17;0.98;;;;;;;30.79;21.46;100487.38;2342634;84;25269;-82
2021/03/05 11:16:20;;;;;;;1.45;1.00;;;;;;;29.89;21.85;100482.57;2352852;84;25431;-75
2021/03/05 11:19:48;;;;;;;3.60;1.10;;;;;;;29.06;22.67;100487.45;2342476;84;25792;-85
2021/03/05 11:23:11;;;;;;;1.15;0.95;;;;;;;29.27;23.20;100479.23;2351170;84;25640;-76
2021/03/05 11:26:50;;;;;;;7.17;0.80;;;;;;;29.81;23.37;100483.96;2349887;84;25525;-72
2021/03/05 11:30:23;;;;;;;1.35;1.00;;;;;;;30.50;23.26;100474.71;2349081;82;25640;-72
2021/03/05 11:33:50;;;;;;;1.92;0.98;;;;;;;30.56;22.67;100472.53;2307802;83;25756;-72
2021/03/05 11:37:12;;;;;;;1.20;0.90;;;;;;;29.81;22.49;100471.39;2350062;84;25747;-78
2021/03/05 11:40:38;;;;;;;2.00;1.10;;;;;;;28.99;22.70;100472.58;2354914;82;25711;-75
2021/03/05 11:44:02;;;;;;;1.22;0.70;;;;;;;28.17;23.04;100473.02;2389709;82;25721;-78
2021/03/05 11:47:28;;;;;;;3.08;0.90;;;;;;;28.03;23.29;100473.28;2374576;82;25756;-72
2021/03/05 11:50:58;;;;;;;1.25;0.80;;;;;;;28.60;23.15;100470.09;2342247;83;25717;-76
2021/03/05 11:54:21;;;;;;;2.52;1.07;;;;;;;28.48;19.95;100463.50;2336158;84;25735;-81
2021/03/05 11:57:52;;;;;;;1.40;0.70;;;;;;;27.54;18.07;100465.22;2339658;84;25766;-79
2021/03/05 12:01:43;;;;;;;0.93;0.70;;;;;;;26.41;17.49;100460.66;2343272;82;25692;-77
2021/03/05 12:05:12;;;;;;;3.98;0.98;;;;;;;24.89;17.20;100466.28;2380914;83;25808;-78
2021/03/05 12:08:36;;;;;;;2.00;1.55;;;;;;;23.29;17.14;100471.59;2380686;83;25764;-78
2021/03/05 12:12:07;;;;;;;1.52;0.80;;;;;;;22.09;17.28;100465.64;2381049;83;25864;-80
2021/03/05 12:15:46;;;;;;;;;;;;;;;;;;;;;
2021/03/05 12:19:08;;;;;;;1.15;0.70;;;;;;;21.67;19.02;100460.83;2360479;83;25767;-76
2021/03/05 12:23:21;;;;;;;4.40;0.85;;;;;;;21.64;20.61;100469.72;2529558;77;29521;-71
2021/03/05 12:26:43;;;;;;;1.98;0.72;;;;;;;21.22;20.39;100470.93;2474795;80;26122;-70
2021/03/05 12:30:06;;;;;;;3.33;0.72;;;;;;;21.51;20.77;100473.52;2496047;78;25637;-71
2021/03/05 12:33:28;;;;;;;1.12;0.50;;;;;;;22.07;20.79;100478.53;2471806;79;25596;-70
2021/03/05 12:36:51;;;;;;;1.10;0.50;;;;;;;22.76;20.54;100495.56;2474537;80;25653;-70
2021/03/05 12:40:13;;;;;;;0.80;0.50;;;;;;;23.34;20.17;100471.45;2473543;79;26002;-73
2021/03/05 12:43:35;;;;;;;1.25;0.57;;;;;;;23.41;19.91;100485.47;2473822;80;25978;-73
2021/03/05 12:46:58;;;;;;;4.25;0.53;;;;;;;23.20;20.04;100494.91;2474340;78;26193;-76
2021/03/05 12:50:20;;;;;;;2.83;0.90;;;;;;;22.92;20.45;100498.25;2450165;80;25812;-70
2021/03/05 12:53:42;;;;;;;0.93;0.60;;;;;;;22.57;20.76;100497.31;2461940;80;25738;-72
2021/03/05 12:57:05;;;;;;;1.00;0.45;;;;;;;22.24;21.21;100496.77;2471495;80;25690;-70
2021/03/05 13:00:27;;;;;;;1.77;0.70;;;;;;;21.89;21.60;100497.06;2433379;80;25737;-71
2021/03/05 13:03:54;;;;;;;2.10;0.88;;;;;;;22.13;21.42;100504.49;2427822;81;25741;-74
2021/03/05 13:07:16;;;;;;;3.05;1.00;;;;;;;22.61;21.26;100503.43;2426784;81;25703;-71
2021/03/05 13:10:48;;;;;;;2.47;1.12;;;;;;;22.75;20.92;100503.99;2427236;80;25775;-75
2021/03/05 13:14:16;;;;;;;2.12;1.02;;;;;;;22.48;20.98;100494.91;2427269;81;25741;-75
2021/03/05 13:18:32;;;;;;;3.17;1.20;;;;;;;22.15;21.20;100501.39;2428033;80;25719;-76
2021/03/05 13:21:54;;;;;;;1.85;0.70;;;;;;;21.73;21.47;100504.46;2424043;81;25679;-73
2021/03/05 13:25:19;;;;;;;7.50;1.17;;;;;;;21.14;22.26;100502.03;2290354;85;25827;-70
2021/03/05 13:28:42;;;;;;;2.98;0.95;;;;;;;20.73;22.44;100504.06;2301406;85;25808;-71
2021/03/05 13:32:15;;;;;;;2.02;0.80;;;;;;;20.42;22.65;100506.29;2600117;76;25630;-72
2021/03/05 13:35:39;;;;;;;1.77;0.98;;;;;;;20.10;22.97;100520.83;2559750;77;25701;-71
2021/03/05 13:39:01;;;;;;;2.15;1.00;;;;;;;19.79;23.04;100517.25;2562807;77;25760;-72
2021/03/05 13:46:58;;;;;;;4.42;0.98;;;;;;;19.53;23.89;100524.13;2557914;76;25846;-76
2021/03/05 13:54:55;;;;;;;2.02;0.90;;;;;;;20.10;24.51;100532.75;2225728;88;25896;-74
2021/03/05 13:58:35;;;;;;;4.03;0.82;;;;;;;20.60;24.36;100539.59;2543520;76;30987;-74
2021/03/05 14:02:07;;;;;;;1.67;1.02;;;;;;;20.83;24.23;100535.27;2431293;81;31054;-72
2021/03/05 14:05:29;;;;;;;1.55;0.80;;;;;;;20.97;23.92;100542.08;2488965;77;26373;-74
2021/03/05 14:08:55;;;;;;;1.42;0.62;;;;;;;21.07;23.70;100551.21;2500408;79;25705;-71
2021/03/05 14:12:17;;;;;;;3.00;1.17;;;;;;;20.93;23.50;100543.03;2505078;77;25635;-73
2021/03/05 14:20:04;;;;;;;1.00;0.75;;;;;;;20.26;24.02;100555.93;2491180;77;31216;-71
2021/03/05 14:23:27;;;;;;;1.12;0.80;;;;;;;19.88;24.22;100559.03;2416565;80;25672;-73
2021/03/05 14:26:48;;;;;;;3.80;1.40;;;;;;;19.61;24.59;100563.73;2362999;82;25821;-71
2021/03/05 14:30:13;;;;;;;1.80;1.30;;;;;;;19.37;24.88;100572.77;2397950;82;25759;-72
2021/03/05 14:33:48;;;;;;;2.95;1.85;;;;;;;19.09;25.25;100569.05;2387993;82;25707;-78
2021/03/05 14:37:11;;;;;;;9.53;1.98;;;;;;;18.77;24.85;100577.23;2392005;82;25674;-71
2021/03/05 14:40:36;;;;;;;2.33;1.75;;;;;;;18.06;24.55;100571.43;2395741;82;25688;-78
2021/03/05 14:45:09;;;;;;;4.40;1.90;;;;;;;17.35;24.80;100572.02;2393580;82;25764;-80
2021/03/05 14:48:41;;;;;;;5.45;2.60;;;;;;;16.58;25.31;100564.48;2545819;76;31379;-71
2021/03/05 14:52:06;;;;;;;2.58;2.25;;;;;;;16.13;25.50;100572.69;2487844;78;25758;-70
2021/03/05 14:55:28;;;;;;;6.42;2.17;;;;;;;15.71;25.58;100578.61;2459372;80;25771;-70
2021/03/05 14:59:40;;;;;;;2.20;1.87;;;;;;;15.40;27.22;100587.58;2458305;80;25705;-73
2021/03/05 15:07:47;;;;;;;6.47;1.62;;;;;;;16.35;35.41;100593.80;2185165;89;25797;-78
2021/03/05 15:11:57;;;;;;;2.75;2.02;;;;;;;16.47;35.47;100589.91;2601798;76;31403;-86
2021/03/05 15:15:19;;;;;;;3.90;2.05;;;;;;;16.46;35.11;100602.60;2561912;77;25599;-72
2021/03/05 15:18:41;;;;;;;6.72;2.60;;;;;;;16.46;35.11;100602.60;2468061;80;25664;-74
2021/03/05 15:22:04;;;;;;;3.12;1.72;;;;;;;16.37;35.28;100603.47;2509396;78;25765;-70
2021/03/05 15:25:26;;;;;;;3.12;1.62;;;;;;;16.28;35.17;100617.45;2467925;80;26211;-71
2021/03/05 15:28:47;;;;;;;4.80;1.95;;;;;;;16.16;35.01;100617.83;2512467;78;25686;-71
2021/03/05 15:32:09;;;;;;;2.10;1.40;;;;;;;16.01;34.93;100623.47;2463979;80;25719;-68
2021/03/05 15:35:31;;;;;;;4.72;2.27;;;;;;;15.88;34.78;100639.17;2463509;79;25965;-87
2021/03/05 15:38:58;;;;;;;2.67;1.52;;;;;;;15.71;34.54;100639.94;2463720;78;25241;-84
2021/03/05 15:42:20;;;;;;;1.98;1.32;;;;;;;15.51;34.22;100644.14;2467460;78;25627;-70
2021/03/05 15:45:41;;;;;;;2.67;1.55;;;;;;;15.33;34.03;100652.77;2462478;78;25676;-81
2021/03/05 15:49:03;;;;;;;2.35;1.37;;;;;;;15.20;33.80;100656.14;2423107;80;25749;-73
2021/03/05 15:53:03;;;;;;;2.17;1.50;;;;;;;15.07;33.56;100661.27;2460838;79;25536;-82
2021/03/05 15:56:25;;;;;;;4.47;1.70;;;;;;;14.94;33.35;100655.45;2415389;79;25535;-68
2021/03/05 15:59:47;;;;;;;2.47;1.95;;;;;;;14.79;33.10;100656.62;2429161;81;26439;-70
2021/03/05 16:03:10;;;;;;;3.27;1.30;;;;;;;14.64;32.90;100647.69;2380433;82;25721;-70
2021/03/05 16:06:32;;;;;;;2.15;1.20;;;;;;;14.52;32.72;100652.81;2424257;81;25341;-73
2021/03/05 16:09:54;;;;;;;1.87;1.20;;;;;;;14.44;32.55;100661.41;2422519;80;25660;-75
2021/03/05 16:13:18;;;;;;;2.37;1.02;;;;;;;14.34;32.35;100661.31;2410260;81;25779;-73
2021/03/05 16:16:39;;;;;;;4.22;1.05;;;;;;;14.25;32.18;100661.63;2437419;81;26333;-71
2021/03/05 16:20:03;;;;;;;2.02;1.05;;;;;;;14.15;32.04;100663.23;2384136;82;25828;-77
2021/03/05 16:23:25;;;;;;;1.10;1.00;;;;;;;14.04;31.92;100672.27;2319370;85;25621;-70
2021/03/05 16:26:48;;;;;;;2.02;1.25;;;;;;;13.93;31.81;100683.89;2399629;82;25685;-76
2021/03/05 16:30:12;;;;;;;1.15;0.82;;;;;;;13.82;31.70;100690.72;2404891;80;26000;-88
2021/03/05 16:33:33;;;;;;;1.77;0.90;;;;;;;13.70;31.63;100687.89;2478717;79;25797;-84
2021/03/05 16:36:56;;;;;;;0.80;0.70;;;;;;;13.59;31.56;100694.71;2493626;78;25666;-83
2021/03/05 16:40:35;;;;;;;1.52;0.90;;;;;;;13.48;31.50;100697.59;2489221;79;25591;-70
2021/03/05 16:44:00;;;;;;;4.05;1.02;;;;;;;13.34;31.43;100706.09;2489182;79;25676;-84
2021/03/05 16:47:22;;;;;;;1.50;1.12;;;;;;;13.07;31.19;100705.56;2447339;80;25791;-76
2021/03/05 16:50:44;;;;;;;2.17;0.93;;;;;;;12.73;31.19;100719.31;2481292;79;25671;-84
2021/03/05 16:58:28;;;;;;;1.60;1.07;;;;;;;12.14;31.17;100722.39;2532369;76;29935;-75
2021/03/05 17:01:50;;;;;;;5.33;1.55;;;;;;;11.83;31.22;100732.09;2467928;78;25550;-80
2021/03/05 17:05:13;;;;;;;4.75;1.15;;;;;;;11.65;31.29;100738.19;2469036;78;25522;-72
2021/03/05 17:09:02;;;;;;;4.92;1.15;;;;;;;11.50;31.27;100742.59;2465674;78;25513;-76
2021/03/05 17:12:24;;;;;;;3.58;1.30;;;;;;;11.33;31.34;100749.09;2444884;80;25710;-75
2021/03/05 17:15:45;;;;;;;7.30;2.20;;;;;;;11.13;31.42;100760.73;2448881;80;25704;-76